createdAt,value
2022-12-18T00:01:34.728Z,15.67
2022-12-18T00:04:05.011Z,15.65
2022-12-18T00:06:33.655Z,15.64
2022-12-18T00:09:03.675Z,15.64
2022-12-18T00:11:32.048Z,15.62
2022-12-18T00:14:00.805Z,15.61
2022-12-18T00:16:31.020Z,15.62
2022-12-18T00:18:58.821Z,15.61
2022-12-18T00:21:27.105Z,15.57
2022-12-18T00:23:54.614Z,15.59
2022-12-18T00:26:25.172Z,15.56
2022-12-18T00:28:53.570Z,15.57
2022-12-18T00:31:24.107Z,15.57
2022-12-18T00:33:55.155Z,15.56
2022-12-18T00:36:26.318Z,15.55
2022-12-18T00:38:55.640Z,15.55
2022-12-18T00:41:42.268Z,15.55
2022-12-18T00:44:12.724Z,15.54
2022-12-18T00:46:40.168Z,15.52
2022-12-18T00:49:08.460Z,15.53
2022-12-18T00:51:36.247Z,15.54
2022-12-18T00:54:03.887Z,15.53
2022-12-18T00:56:31.719Z,15.53
2022-12-18T00:58:59.227Z,15.53
2022-12-18T01:01:26.632Z,15.54
2022-12-18T01:03:54.344Z,15.56
2022-12-18T01:06:21.653Z,15.57
2022-12-18T01:08:49.308Z,15.58
2022-12-18T01:11:19.010Z,15.58
2022-12-18T01:13:46.620Z,15.59
2022-12-18T01:16:15.819Z,15.59
2022-12-18T01:18:43.823Z,15.61
2022-12-18T01:21:16.070Z,15.59
2022-12-18T01:23:45.022Z,15.59
2022-12-18T01:26:16.121Z,15.60
2022-12-18T01:28:45.069Z,15.60
2022-12-18T01:31:21.486Z,15.59
2022-12-18T01:33:49.611Z,15.61
2022-12-18T01:36:28.600Z,15.60
2022-12-18T01:38:56.709Z,15.58
2022-12-18T01:41:26.988Z,15.58
2022-12-18T01:43:58.185Z,15.60
2022-12-18T01:46:27.357Z,15.57
2022-12-18T01:49:02.203Z,15.60
2022-12-18T01:51:31.290Z,15.58
2022-12-18T01:54:00.244Z,15.60
2022-12-18T01:56:27.703Z,15.58
2022-12-18T01:59:00.828Z,15.58
2022-12-18T02:01:31.049Z,15.56
2022-12-18T02:04:23.571Z,15.56
2022-12-18T02:07:14.259Z,15.56
2022-12-18T02:10:04.753Z,15.56
2022-12-18T02:12:49.310Z,15.58
2022-12-18T02:15:27.860Z,15.55
2022-12-18T02:18:04.307Z,15.57
2022-12-18T02:20:38.021Z,15.58
2022-12-18T02:23:31.219Z,15.58
2022-12-18T02:26:28.321Z,15.57
2022-12-18T02:29:00.805Z,15.57
2022-12-18T02:31:35.484Z,15.56
2022-12-18T02:34:07.617Z,15.56
2022-12-18T02:36:39.019Z,15.53
2022-12-18T02:39:10.000Z,15.54
2022-12-18T02:41:38.739Z,15.53
2022-12-18T02:44:11.907Z,15.54
2022-12-18T02:46:43.485Z,15.55
2022-12-18T02:49:42.837Z,15.53
2022-12-18T02:52:31.784Z,15.54
2022-12-18T02:55:09.768Z,15.53
2022-12-18T02:58:14.264Z,15.55
2022-12-18T03:01:03.917Z,15.52
2022-12-18T03:03:50.016Z,15.50
2022-12-18T03:06:26.239Z,15.51
2022-12-18T03:09:15.763Z,15.49
2022-12-18T03:12:09.688Z,15.51
2022-12-18T03:14:39.306Z,15.52
2022-12-18T03:17:14.513Z,15.48
2022-12-18T03:19:43.115Z,15.49
2022-12-18T03:22:10.996Z,15.49
2022-12-18T03:24:40.505Z,15.48
2022-12-18T03:27:13.357Z,15.49
2022-12-18T03:29:49.101Z,15.48
2022-12-18T03:32:26.563Z,15.50
2022-12-18T03:34:58.639Z,15.49
2022-12-18T03:37:25.936Z,15.47
2022-12-18T03:39:53.611Z,15.46
2022-12-18T03:43:00.874Z,15.46
2022-12-18T03:45:37.295Z,15.46
2022-12-18T03:48:13.801Z,15.47
2022-12-18T03:50:50.691Z,15.46
2022-12-18T03:53:53.647Z,15.46
2022-12-18T03:56:26.348Z,15.45
2022-12-18T03:58:56.165Z,15.46
2022-12-18T04:01:29.628Z,15.44
2022-12-18T04:04:00.243Z,15.45
2022-12-18T04:06:30.374Z,15.43
2022-12-18T04:08:59.287Z,15.43
2022-12-18T04:11:26.882Z,15.42
2022-12-18T04:13:58.968Z,15.42
2022-12-18T04:16:27.348Z,15.42
2022-12-18T04:18:55.143Z,15.40
2022-12-18T04:21:23.624Z,15.41
2022-12-18T04:23:50.885Z,15.38
2022-12-18T04:26:18.501Z,15.38
2022-12-18T04:28:45.820Z,15.39
2022-12-18T04:31:14.352Z,15.39
2022-12-18T04:33:41.953Z,15.38
2022-12-18T04:36:09.845Z,15.41
2022-12-18T04:38:37.121Z,15.38
2022-12-18T04:41:05.205Z,15.40
2022-12-18T04:43:33.836Z,15.37
2022-12-18T04:46:09.284Z,15.38
2022-12-18T04:48:37.460Z,15.38
2022-12-18T04:51:06.468Z,15.38
2022-12-18T04:53:33.935Z,15.39
2022-12-18T04:56:10.489Z,15.37
2022-12-18T04:58:38.792Z,15.36
2022-12-18T05:01:08.370Z,15.35
2022-12-18T05:03:36.502Z,15.34
2022-12-18T05:06:05.707Z,15.36
2022-12-18T05:08:33.304Z,15.37
2022-12-18T05:11:10.532Z,15.35
2022-12-18T05:13:39.263Z,15.34
2022-12-18T05:16:10.103Z,15.35
2022-12-18T05:18:37.447Z,15.35
2022-12-18T05:21:05.344Z,15.34
2022-12-18T05:23:32.587Z,15.35
2022-12-18T05:26:02.767Z,15.35
2022-12-18T05:28:31.984Z,15.32
2022-12-18T05:31:01.992Z,15.36
2022-12-18T05:33:35.390Z,15.34
2022-12-18T05:36:06.373Z,15.33
2022-12-18T05:38:35.814Z,15.31
2022-12-18T05:41:04.984Z,15.34
2022-12-18T05:43:32.364Z,15.34
2022-12-18T05:46:04.736Z,15.35
2022-12-18T05:48:32.009Z,15.35
2022-12-18T05:51:08.390Z,15.36
2022-12-18T05:53:37.521Z,15.36
2022-12-18T05:56:08.353Z,15.35
2022-12-18T05:58:36.019Z,15.36
2022-12-18T06:01:16.603Z,15.34
2022-12-18T06:03:45.080Z,15.35
2022-12-18T06:06:18.666Z,15.34
2022-12-18T06:08:46.715Z,15.34
2022-12-18T06:11:18.935Z,15.35
2022-12-18T06:13:47.372Z,15.34
2022-12-18T06:16:14.950Z,15.34
2022-12-18T06:18:42.432Z,15.34
2022-12-18T06:21:10.072Z,15.35
2022-12-18T06:23:37.695Z,15.34
2022-12-18T06:26:07.849Z,15.34
2022-12-18T06:28:35.341Z,15.33
2022-12-18T06:31:04.608Z,15.34
2022-12-18T06:33:32.848Z,15.33
2022-12-18T06:36:11.536Z,15.32
2022-12-18T06:38:43.234Z,15.34
2022-12-18T06:41:13.473Z,15.33
2022-12-18T06:43:41.326Z,15.34
2022-12-18T06:46:09.744Z,15.34
2022-12-18T06:48:37.041Z,15.33
2022-12-18T06:51:04.857Z,15.34
2022-12-18T06:53:33.096Z,15.34
2022-12-18T06:56:09.856Z,15.33
2022-12-18T06:58:39.480Z,15.35
2022-12-18T07:01:09.953Z,15.34
2022-12-18T07:03:38.800Z,15.33
2022-12-18T07:06:07.204Z,15.34
2022-12-18T07:08:34.534Z,15.33
2022-12-18T07:11:05.285Z,15.34
2022-12-18T07:13:32.802Z,15.35
2022-12-18T07:16:12.922Z,15.33
2022-12-18T07:18:43.644Z,15.34
2022-12-18T07:21:13.980Z,15.34
2022-12-18T07:23:41.660Z,15.33
2022-12-18T07:26:13.275Z,15.34
2022-12-18T07:28:42.052Z,15.32
2022-12-18T07:31:13.194Z,15.33
2022-12-18T07:33:40.796Z,15.32
2022-12-18T07:36:10.864Z,15.33
2022-12-18T07:38:38.553Z,15.35
2022-12-18T07:41:08.832Z,15.36
2022-12-18T07:43:37.338Z,15.34
2022-12-18T07:46:06.560Z,15.35
2022-12-18T07:48:33.930Z,15.33
2022-12-18T07:51:03.643Z,15.33
2022-12-18T07:53:31.571Z,15.34
2022-12-18T07:56:25.889Z,15.35
2022-12-18T07:58:48.566Z,15.32
2022-12-18T08:01:16.799Z,15.31
2022-12-18T08:03:44.576Z,15.31
2022-12-18T08:06:12.107Z,15.31
2022-12-18T08:08:41.112Z,15.30
2022-12-18T08:11:08.885Z,15.30
2022-12-18T08:13:36.354Z,15.29
2022-12-18T08:16:07.467Z,15.29
2022-12-18T08:18:37.084Z,15.29
2022-12-18T08:21:16.084Z,15.29
2022-12-18T08:23:44.127Z,15.28
2022-12-18T08:26:13.037Z,15.29
2022-12-18T08:28:41.008Z,15.28
2022-12-18T08:31:09.132Z,15.30
2022-12-18T08:33:38.924Z,15.31
2022-12-18T08:36:07.939Z,15.32
2022-12-18T08:38:35.265Z,15.31
2022-12-18T08:41:04.982Z,15.31
2022-12-18T08:43:52.384Z,15.29
2022-12-18T08:46:21.679Z,15.29
2022-12-18T08:48:52.186Z,15.28
2022-12-18T08:51:19.826Z,15.29
2022-12-18T08:53:47.945Z,15.27
2022-12-18T08:56:16.139Z,15.29
2022-12-18T08:58:43.749Z,15.28
2022-12-18T09:01:13.195Z,15.28
2022-12-18T09:03:41.547Z,15.26
2022-12-18T09:06:09.136Z,15.26
2022-12-18T09:08:37.949Z,15.27
2022-12-18T09:11:05.808Z,15.27
2022-12-18T09:13:33.344Z,15.27
2022-12-18T09:16:00.566Z,15.28
2022-12-18T09:18:28.140Z,15.27
2022-12-18T09:20:55.487Z,15.27
2022-12-18T09:23:23.576Z,15.27
2022-12-18T09:25:50.811Z,15.27
2022-12-18T09:28:20.081Z,15.27
2022-12-18T09:30:49.842Z,15.26
2022-12-18T09:33:18.067Z,15.27
2022-12-18T09:35:46.117Z,15.27
2022-12-18T09:38:16.803Z,15.25
2022-12-18T09:40:50.121Z,15.26
2022-12-18T09:43:28.111Z,15.26
2022-12-18T09:46:01.196Z,15.25
2022-12-18T09:48:36.276Z,15.26
2022-12-18T09:51:13.237Z,15.25
2022-12-18T09:53:45.347Z,15.23
2022-12-18T09:56:19.636Z,15.25
2022-12-18T09:58:56.210Z,15.26
2022-12-18T10:01:24.873Z,15.25
2022-12-18T10:03:55.848Z,15.25
2022-12-18T10:06:53.272Z,15.27
2022-12-18T10:09:20.863Z,15.23
2022-12-18T10:12:26.521Z,15.22
2022-12-18T10:15:02.285Z,15.24
2022-12-18T10:17:55.254Z,15.25
2022-12-18T10:20:52.170Z,15.22
2022-12-18T10:23:28.460Z,15.22
2022-12-18T10:26:04.556Z,15.20
2022-12-18T10:28:34.157Z,15.18
2022-12-18T10:31:01.980Z,15.20
2022-12-18T10:33:32.523Z,15.19
2022-12-18T10:36:01.139Z,15.18
2022-12-18T10:38:30.489Z,15.19
2022-12-18T10:41:27.627Z,15.19
2022-12-18T10:44:18.645Z,15.21
2022-12-18T10:46:49.059Z,15.21
2022-12-18T10:49:22.307Z,15.19
2022-12-18T10:51:50.375Z,15.19
2022-12-18T10:54:24.416Z,15.20
2022-12-18T10:56:52.003Z,15.17
2022-12-18T10:59:19.464Z,15.16
2022-12-18T11:01:59.914Z,15.17
2022-12-18T11:04:32.057Z,15.17
2022-12-18T11:07:08.120Z,15.15
2022-12-18T11:09:40.729Z,15.14
2022-12-18T11:12:11.389Z,15.15
2022-12-18T11:14:48.493Z,15.13
2022-12-18T11:17:36.711Z,15.12
2022-12-18T11:20:10.279Z,15.13
2022-12-18T11:22:39.195Z,15.12
2022-12-18T11:28:21.161Z,15.12
2022-12-18T11:30:48.551Z,15.11
2022-12-18T11:33:22.561Z,15.11
2022-12-18T11:36:06.210Z,15.10
2022-12-18T11:38:38.321Z,15.11
2022-12-18T11:41:24.398Z,15.11
2022-12-18T11:43:59.788Z,15.11
2022-12-18T11:46:37.146Z,15.09
2022-12-18T11:49:13.958Z,15.07
2022-12-18T11:51:52.879Z,15.09
2022-12-18T11:54:20.387Z,15.08
2022-12-18T11:56:52.429Z,15.07
2022-12-18T11:59:31.412Z,15.08
2022-12-18T12:02:25.115Z,15.06
2022-12-18T12:05:25.652Z,15.05
2022-12-18T12:07:53.416Z,15.05
2022-12-18T12:10:23.696Z,15.06
2022-12-18T12:13:21.548Z,15.05
2022-12-18T12:16:29.558Z,15.05
2022-12-18T12:19:02.452Z,15.04
2022-12-18T12:21:40.409Z,15.05
2022-12-18T12:24:45.367Z,15.06
2022-12-18T12:27:54.582Z,15.06
2022-12-18T12:30:31.642Z,15.05
2022-12-18T12:33:17.812Z,15.05
2022-12-18T12:35:47.985Z,15.04
2022-12-18T12:38:36.481Z,15.05
2022-12-18T12:41:32.715Z,15.02
2022-12-18T12:44:10.082Z,15.03
2022-12-18T12:46:42.585Z,15.04
2022-12-18T12:49:23.124Z,15.01
2022-12-18T12:52:15.471Z,15.02
2022-12-18T12:54:45.755Z,15.01
2022-12-18T12:57:26.230Z,15.03
2022-12-18T13:00:06.212Z,15.01
2022-12-18T13:02:52.153Z,15.03
2022-12-18T13:05:41.352Z,15.01
2022-12-18T13:08:11.498Z,15.01
2022-12-18T13:10:41.772Z,15.01
2022-12-18T13:13:10.996Z,15.06
2022-12-18T13:15:51.204Z,15.05
2022-12-18T13:18:20.750Z,15.06
2022-12-18T13:21:01.187Z,15.07
2022-12-18T13:23:37.770Z,15.07
2022-12-18T13:26:11.278Z,15.08
2022-12-18T13:28:47.713Z,15.07
2022-12-18T13:31:24.346Z,15.08
2022-12-18T13:36:39.593Z,15.08
2022-12-18T13:39:34.793Z,15.06
2022-12-18T13:42:06.924Z,15.08
2022-12-18T13:44:40.323Z,15.08
2022-12-18T13:47:38.400Z,15.08
2022-12-18T13:50:28.581Z,15.07
2022-12-18T13:53:00.268Z,15.08
2022-12-18T13:55:27.858Z,15.09
2022-12-18T13:58:05.955Z,15.07
2022-12-18T14:00:33.366Z,15.07
2022-12-18T14:03:01.222Z,15.05
2022-12-18T14:05:32.392Z,15.06
2022-12-18T14:08:06.933Z,15.06
2022-12-18T14:10:48.037Z,15.05
2022-12-18T14:13:41.934Z,15.04
2022-12-18T14:16:16.163Z,15.05
2022-12-18T14:19:01.956Z,15.05
2022-12-18T14:21:47.880Z,15.03
2022-12-18T14:24:19.703Z,15.02
2022-12-18T14:26:49.650Z,15.02
2022-12-18T14:29:29.806Z,15.00
2022-12-18T14:32:21.210Z,15.01
2022-12-18T14:34:51.455Z,14.99
2022-12-18T14:37:24.630Z,14.96
2022-12-18T14:40:04.413Z,14.92
2022-12-18T14:42:36.149Z,14.88
2022-12-18T14:45:42.273Z,14.87
2022-12-18T14:48:23.458Z,14.84
2022-12-18T14:51:03.597Z,14.82
2022-12-18T14:53:35.744Z,14.81
2022-12-18T14:56:13.236Z,14.80
2022-12-18T14:58:45.064Z,14.77
2022-12-18T15:01:23.895Z,14.76
2022-12-18T15:03:53.737Z,14.76
2022-12-18T15:06:33.562Z,14.72
2022-12-18T15:09:03.833Z,14.72
2022-12-18T15:11:47.177Z,14.70
2022-12-18T15:14:31.417Z,14.70
2022-12-18T15:17:00.909Z,14.70
2022-12-18T15:19:41.656Z,14.69
2022-12-18T15:22:30.553Z,14.68
2022-12-18T15:24:59.700Z,14.66
2022-12-18T15:27:36.781Z,14.64
2022-12-18T15:30:07.618Z,14.66
2022-12-18T15:32:37.559Z,14.63
2022-12-18T15:35:15.232Z,14.64
2022-12-18T15:37:43.725Z,14.62
2022-12-18T15:40:20.219Z,14.62
2022-12-18T15:43:07.827Z,14.61
2022-12-18T15:45:35.186Z,14.61
2022-12-18T15:48:19.069Z,14.62
2022-12-18T15:50:47.183Z,14.60
2022-12-18T15:53:16.184Z,14.63
2022-12-18T15:56:02.249Z,14.69
2022-12-18T15:58:31.117Z,14.81
2022-12-18T16:01:00.715Z,14.91
2022-12-18T16:03:28.451Z,14.96
2022-12-18T16:05:55.774Z,15.02
2022-12-18T16:08:24.399Z,15.10
2022-12-18T16:10:51.780Z,15.13
2022-12-18T16:13:21.243Z,15.20
2022-12-18T16:15:48.680Z,15.25
2022-12-18T16:18:16.413Z,15.32
2022-12-18T16:20:43.766Z,15.35
2022-12-18T16:23:11.319Z,15.42
2022-12-18T16:25:38.676Z,15.47
2022-12-18T16:28:06.445Z,15.49
2022-12-18T16:30:38.051Z,15.53
2022-12-18T16:33:07.554Z,15.53
2022-12-18T16:35:35.234Z,15.56
2022-12-18T16:38:02.773Z,15.57
2022-12-18T16:40:32.781Z,15.56
2022-12-18T16:43:00.318Z,15.56
2022-12-18T16:45:33.902Z,15.59
2022-12-18T16:48:01.664Z,15.61
2022-12-18T16:50:29.012Z,15.64
2022-12-18T16:52:56.607Z,15.63
2022-12-18T16:55:23.824Z,15.60
2022-12-18T16:57:51.339Z,15.69
2022-12-18T17:00:18.723Z,15.73
2022-12-18T17:02:46.906Z,15.71
2022-12-18T17:05:14.538Z,15.72
2022-12-18T17:07:42.130Z,15.68
2022-12-18T17:10:09.996Z,15.69
2022-12-18T17:12:37.641Z,15.70
2022-12-18T17:15:05.335Z,15.66
2022-12-18T17:17:33.541Z,15.67
2022-12-18T17:20:00.784Z,15.64
2022-12-18T17:22:28.413Z,15.61
2022-12-18T17:24:55.694Z,15.63
2022-12-18T17:27:23.369Z,15.62
2022-12-18T17:29:50.951Z,15.60
2022-12-18T17:32:18.555Z,15.60
2022-12-18T17:34:47.013Z,15.59
2022-12-18T17:37:15.674Z,15.58
2022-12-18T17:39:43.551Z,15.61
2022-12-18T17:42:15.484Z,15.59
2022-12-18T17:44:44.235Z,15.58
2022-12-18T17:47:13.492Z,15.57
2022-12-18T17:49:41.090Z,15.59
2022-12-18T17:52:08.824Z,15.55
2022-12-18T17:54:39.539Z,15.57
2022-12-18T17:57:06.856Z,15.57
2022-12-18T17:59:34.526Z,15.57
2022-12-18T18:02:02.190Z,15.56
2022-12-18T18:04:30.536Z,15.54
2022-12-18T18:06:57.857Z,15.55
2022-12-18T18:09:25.651Z,15.54
2022-12-18T18:12:11.875Z,15.53
2022-12-18T18:14:39.604Z,15.54
2022-12-18T18:17:07.124Z,15.54
2022-12-18T18:19:34.702Z,15.53
2022-12-18T18:22:03.108Z,15.54
2022-12-18T18:24:33.132Z,15.53
2022-12-18T18:27:00.487Z,15.52
2022-12-18T18:29:30.453Z,15.51
2022-12-18T18:31:58.845Z,15.48
2022-12-18T18:34:29.115Z,15.47
2022-12-18T18:36:56.679Z,15.46
2022-12-18T18:39:24.249Z,15.46
2022-12-18T18:41:51.719Z,15.46
2022-12-18T18:44:26.205Z,15.44
2022-12-18T18:46:58.323Z,15.47
2022-12-18T18:49:27.321Z,15.47
2022-12-18T18:51:56.148Z,15.45
2022-12-18T18:54:24.708Z,15.44
2022-12-18T18:59:39.815Z,15.43
2022-12-18T19:02:12.101Z,15.43
2022-12-18T19:04:44.971Z,15.42
2022-12-18T19:07:29.591Z,15.43
2022-12-18T19:10:04.180Z,15.42
2022-12-18T19:12:52.948Z,15.39
2022-12-18T19:15:20.603Z,15.33
2022-12-18T19:17:48.056Z,15.33
2022-12-18T19:20:15.943Z,15.34
2022-12-18T19:22:43.345Z,15.33
2022-12-18T19:25:14.144Z,15.31
2022-12-18T19:27:42.021Z,15.31
2022-12-18T19:30:10.414Z,15.29
2022-12-18T19:32:37.813Z,15.34
2022-12-18T19:35:05.863Z,15.34
2022-12-18T19:37:35.083Z,15.34
2022-12-18T19:40:09.121Z,15.38
2022-12-18T19:42:39.824Z,15.39
2022-12-18T19:45:08.133Z,15.42
2022-12-18T19:47:35.383Z,15.44
2022-12-18T19:50:03.121Z,15.44
2022-12-18T19:52:30.586Z,15.45
2022-12-18T19:54:58.287Z,15.47
2022-12-18T19:57:26.076Z,15.49
2022-12-18T19:59:53.615Z,15.50
2022-12-18T20:02:21.134Z,15.50
2022-12-18T20:04:49.927Z,15.50
2022-12-18T20:07:18.508Z,15.49
2022-12-18T20:09:46.068Z,15.49
2022-12-18T20:12:14.395Z,15.49
2022-12-18T20:14:42.203Z,15.49
2022-12-18T20:17:11.001Z,15.51
2022-12-18T20:19:39.136Z,15.44
2022-12-18T20:22:06.900Z,15.44
2022-12-18T20:24:34.498Z,15.43
2022-12-18T20:27:02.051Z,15.39
2022-12-18T20:29:29.649Z,15.41
2022-12-18T20:31:57.118Z,15.38
2022-12-18T20:34:24.773Z,15.37
2022-12-18T20:36:52.412Z,15.35
2022-12-18T20:39:21.209Z,15.37
2022-12-18T20:41:49.505Z,15.34
2022-12-18T20:44:23.040Z,15.31
2022-12-18T20:46:56.646Z,15.32
2022-12-18T20:49:26.436Z,15.30
2022-12-18T20:51:56.324Z,15.27
2022-12-18T20:54:26.793Z,15.28
2022-12-18T20:56:54.489Z,15.27
2022-12-18T20:59:23.249Z,15.27
2022-12-18T21:01:52.033Z,15.25
2022-12-18T21:04:20.401Z,15.23
2022-12-18T21:06:53.372Z,15.21
2022-12-18T21:09:25.545Z,15.23
2022-12-18T21:12:14.348Z,15.20
2022-12-18T21:14:44.274Z,15.18
2022-12-18T21:17:12.061Z,15.16
2022-12-18T21:19:40.446Z,15.16
2022-12-18T21:22:09.762Z,15.15
2022-12-18T21:24:37.816Z,15.14
2022-12-18T21:27:05.280Z,15.12
2022-12-18T21:29:33.320Z,15.11
2022-12-18T21:32:02.428Z,15.13
2022-12-18T21:34:31.468Z,15.10
2022-12-18T21:36:59.982Z,15.08
2022-12-18T21:39:29.285Z,15.08
2022-12-18T21:42:16.177Z,15.08
2022-12-18T21:44:46.751Z,15.06
2022-12-18T21:47:21.963Z,15.05
2022-12-18T21:49:52.706Z,15.04
2022-12-18T21:52:30.745Z,15.01
2022-12-18T21:55:09.157Z,15.02
2022-12-18T21:57:40.113Z,15.00
2022-12-18T22:00:18.465Z,15.00
2022-12-18T22:02:48.489Z,14.99
2022-12-18T22:05:36.019Z,14.96
2022-12-18T22:08:03.260Z,14.95
2022-12-18T22:10:31.135Z,14.97
2022-12-18T22:12:58.557Z,14.96
2022-12-18T22:15:26.129Z,14.94
2022-12-18T22:17:58.716Z,14.91
2022-12-18T22:20:29.759Z,14.92
2022-12-18T22:22:57.793Z,14.90
2022-12-18T22:25:25.596Z,14.91
2022-12-18T22:28:11.657Z,14.90
2022-12-18T22:30:39.174Z,14.88
2022-12-18T22:33:06.844Z,14.87
2022-12-18T22:35:34.849Z,14.86
2022-12-18T22:38:02.181Z,14.82
2022-12-18T22:40:30.125Z,14.84
2022-12-18T22:42:57.659Z,14.83
2022-12-18T22:45:26.363Z,14.82
2022-12-18T22:47:53.718Z,14.81
2022-12-18T22:50:21.530Z,14.79
2022-12-18T22:52:48.856Z,14.77
2022-12-18T22:55:16.389Z,14.78
2022-12-18T22:57:47.050Z,14.76
2022-12-18T23:00:23.826Z,14.78
2022-12-18T23:02:59.218Z,14.76
2022-12-18T23:05:30.533Z,14.74
2022-12-18T23:07:58.546Z,14.75
2022-12-18T23:10:27.221Z,14.74
2022-12-18T23:12:54.494Z,14.74
2022-12-18T23:15:27.929Z,14.72
2022-12-18T23:17:59.418Z,14.72
2022-12-18T23:20:27.788Z,14.76
2022-12-18T23:22:55.132Z,14.78
2022-12-18T23:25:23.537Z,14.79
2022-12-18T23:27:51.020Z,14.80
2022-12-18T23:30:18.823Z,14.79
2022-12-18T23:32:46.119Z,14.79
2022-12-18T23:35:15.602Z,14.82
2022-12-18T23:38:00.075Z,14.82
2022-12-18T23:40:29.671Z,14.80
2022-12-18T23:42:58.502Z,14.81
2022-12-18T23:45:26.063Z,14.81
2022-12-18T23:47:53.494Z,14.78
2022-12-18T23:50:24.045Z,14.77
2022-12-18T23:53:05.076Z,14.77
2022-12-18T23:55:38.601Z,14.77
2022-12-18T23:58:06.023Z,14.77
